sensor_id;sensor_type;location;lat;lon;timestamp;temperature;humidity
41694;DHT22;27377;50.666;9.150;2023-03-23T00:01:19;12.20;99.90
41694;DHT22;27377;50.666;9.150;2023-03-23T00:03:51;12.20;99.90
41694;DHT22;27377;50.666;9.150;2023-03-23T00:06:18;12.30;99.90
41694;DHT22;27377;50.666;9.150;2023-03-23T00:08:46;12.20;99.90
41694;DHT22;27377;50.666;9.150;2023-03-23T00:11:17;12.20;99.90
41694;DHT22;27377;50.666;9.150;2023-03-23T00:13:48;12.20;99.90
41694;DHT22;27377;50.666;9.150;2023-03-23T00:16:20;12.20;99.90
41694;DHT22;27377;50.666;9.150;2023-03-23T00:19:04;12.20;99.90
41694;DHT22;27377;50.666;9.150;2023-03-23T00:21:34;12.20;99.90
41694;DHT22;27377;50.666;9.150;2023-03-23T00:24:05;12.20;99.90
41694;DHT22;27377;50.666;9.150;2023-03-23T00:26:32;12.30;99.90
41694;DHT22;27377;50.666;9.150;2023-03-23T00:29:03;12.30;99.90
41694;DHT22;27377;50.666;9.150;2023-03-23T00:31:29;12.20;99.90
41694;DHT22;27377;50.666;9.150;2023-03-23T00:34:02;12.20;99.90
41694;DHT22;27377;50.666;9.150;2023-03-23T00:36:30;12.20;99.90
41694;DHT22;27377;50.666;9.150;2023-03-23T00:38:56;12.20;99.90
41694;DHT22;27377;50.666;9.150;2023-03-23T00:41:24;12.20;99.90
41694;DHT22;27377;50.666;9.150;2023-03-23T00:43:56;12.20;99.90
41694;DHT22;27377;50.666;9.150;2023-03-23T00:46:23;12.20;99.90
41694;DHT22;27377;50.666;9.150;2023-03-23T00:48:50;12.20;99.90
41694;DHT22;27377;50.666;9.150;2023-03-23T00:51:17;12.20;99.90
41694;DHT22;27377;50.666;9.150;2023-03-23T00:53:46;12.20;99.90
41694;DHT22;27377;50.666;9.150;2023-03-23T00:56:12;12.20;99.90
41694;DHT22;27377;50.666;9.150;2023-03-23T00:58:38;12.20;99.90
41694;DHT22;27377;50.666;9.150;2023-03-23T01:01:05;12.20;99.90
41694;DHT22;27377;50.666;9.150;2023-03-23T01:03:30;12.20;99.90
41694;DHT22;27377;50.666;9.150;2023-03-23T01:05:56;12.20;99.90
41694;DHT22;27377;50.666;9.150;2023-03-23T01:08:25;12.20;99.90
41694;DHT22;27377;50.666;9.150;2023-03-23T01:11:02;12.20;99.90
41694;DHT22;27377;50.666;9.150;2023-03-23T01:13:29;12.20;99.90
41694;DHT22;27377;50.666;9.150;2023-03-23T01:16:07;12.20;99.90
41694;DHT22;27377;50.666;9.150;2023-03-23T01:18:36;12.10;99.90
41694;DHT22;27377;50.666;9.150;2023-03-23T01:21:15;12.20;99.90
41694;DHT22;27377;50.666;9.150;2023-03-23T01:23:42;12.10;99.90
41694;DHT22;27377;50.666;9.150;2023-03-23T01:26:13;12.10;99.90
41694;DHT22;27377;50.666;9.150;2023-03-23T01:28:41;12.10;99.90
41694;DHT22;27377;50.666;9.150;2023-03-23T01:31:10;12.00;99.90
41694;DHT22;27377;50.666;9.150;2023-03-23T01:33:45;12.00;99.90
41694;DHT22;27377;50.666;9.150;2023-03-23T01:36:20;12.00;99.90
41694;DHT22;27377;50.666;9.150;2023-03-23T01:38:48;12.00;99.90
41694;DHT22;27377;50.666;9.150;2023-03-23T01:41:15;12.00;99.90
41694;DHT22;27377;50.666;9.150;2023-03-23T01:46:35;11.90;99.90
41694;DHT22;27377;50.666;9.150;2023-03-23T01:49:17;12.00;99.90
41694;DHT22;27377;50.666;9.150;2023-03-23T01:52:09;12.00;99.90
41694;DHT22;27377;50.666;9.150;2023-03-23T01:54:44;11.90;99.90
41694;DHT22;27377;50.666;9.150;2023-03-23T01:57:14;11.90;99.90
41694;DHT22;27377;50.666;9.150;2023-03-23T01:59:42;11.90;99.90
41694;DHT22;27377;50.666;9.150;2023-03-23T02:02:10;11.80;99.90
41694;DHT22;27377;50.666;9.150;2023-03-23T02:04:36;11.90;99.90
41694;DHT22;27377;50.666;9.150;2023-03-23T02:07:02;11.80;99.90
41694;DHT22;27377;50.666;9.150;2023-03-23T02:09:28;11.80;99.90
41694;DHT22;27377;50.666;9.150;2023-03-23T02:11:55;11.80;99.90
41694;DHT22;27377;50.666;9.150;2023-03-23T02:14:23;11.80;99.90
41694;DHT22;27377;50.666;9.150;2023-03-23T02:16:55;11.80;99.90
41694;DHT22;27377;50.666;9.150;2023-03-23T02:20:04;11.80;99.90
41694;DHT22;27377;50.666;9.150;2023-03-23T02:22:50;11.80;99.90
41694;DHT22;27377;50.666;9.150;2023-03-23T02:25:31;11.70;99.90
41694;DHT22;27377;50.666;9.150;2023-03-23T02:28:22;11.80;99.90
41694;DHT22;27377;50.666;9.150;2023-03-23T02:33:51;11.70;99.90
41694;DHT22;27377;50.666;9.150;2023-03-23T02:36:37;11.60;99.90
41694;DHT22;27377;50.666;9.150;2023-03-23T02:39:10;11.60;99.90
41694;DHT22;27377;50.666;9.150;2023-03-23T02:41:48;11.60;99.90
41694;DHT22;27377;50.666;9.150;2023-03-23T02:44:15;11.60;99.90
41694;DHT22;27377;50.666;9.150;2023-03-23T02:46:41;11.60;99.90
41694;DHT22;27377;50.666;9.150;2023-03-23T02:49:09;11.50;99.90
41694;DHT22;27377;50.666;9.150;2023-03-23T02:51:36;11.50;99.90
41694;DHT22;27377;50.666;9.150;2023-03-23T02:54:04;11.50;99.90
41694;DHT22;27377;50.666;9.150;2023-03-23T02:56:31;11.50;99.90
41694;DHT22;27377;50.666;9.150;2023-03-23T02:58:58;11.50;99.90
41694;DHT22;27377;50.666;9.150;2023-03-23T03:04:00;11.50;99.90
41694;DHT22;27377;50.666;9.150;2023-03-23T03:06:33;11.50;99.90
41694;DHT22;27377;50.666;9.150;2023-03-23T03:09:13;11.40;99.90
41694;DHT22;27377;50.666;9.150;2023-03-23T03:11:45;11.50;99.90
41694;DHT22;27377;50.666;9.150;2023-03-23T03:14:21;11.50;99.90
41694;DHT22;27377;50.666;9.150;2023-03-23T03:16:57;11.40;99.90
41694;DHT22;27377;50.666;9.150;2023-03-23T03:21:54;11.50;99.90
41694;DHT22;27377;50.666;9.150;2023-03-23T03:24:24;11.50;99.90
41694;DHT22;27377;50.666;9.150;2023-03-23T03:26:52;11.50;99.90
41694;DHT22;27377;50.666;9.150;2023-03-23T03:29:22;11.50;99.90
41694;DHT22;27377;50.666;9.150;2023-03-23T03:31:50;11.50;99.90
41694;DHT22;27377;50.666;9.150;2023-03-23T03:34:16;11.40;99.90
41694;DHT22;27377;50.666;9.150;2023-03-23T03:36:44;11.40;99.90
41694;DHT22;27377;50.666;9.150;2023-03-23T03:39:11;11.40;99.90
41694;DHT22;27377;50.666;9.150;2023-03-23T03:41:38;11.40;99.90
41694;DHT22;27377;50.666;9.150;2023-03-23T03:44:05;11.30;99.90
41694;DHT22;27377;50.666;9.150;2023-03-23T03:46:32;11.30;99.90
41694;DHT22;27377;50.666;9.150;2023-03-23T03:48:58;11.30;99.90
41694;DHT22;27377;50.666;9.150;2023-03-23T03:51:25;11.30;99.90
41694;DHT22;27377;50.666;9.150;2023-03-23T03:53:51;11.20;99.90
41694;DHT22;27377;50.666;9.150;2023-03-23T03:56:17;11.20;99.90
41694;DHT22;27377;50.666;9.150;2023-03-23T03:58:43;11.10;99.90
41694;DHT22;27377;50.666;9.150;2023-03-23T04:01:09;11.10;99.90
41694;DHT22;27377;50.666;9.150;2023-03-23T04:03:36;11.10;99.90
41694;DHT22;27377;50.666;9.150;2023-03-23T04:06:02;11.10;99.90
41694;DHT22;27377;50.666;9.150;2023-03-23T04:08:28;11.10;99.90
41694;DHT22;27377;50.666;9.150;2023-03-23T04:10:54;11.10;99.90
41694;DHT22;27377;50.666;9.150;2023-03-23T04:13:20;11.10;99.90
41694;DHT22;27377;50.666;9.150;2023-03-23T04:15:46;11.00;99.90
41694;DHT22;27377;50.666;9.150;2023-03-23T04:18:13;11.00;99.90
41694;DHT22;27377;50.666;9.150;2023-03-23T04:20:41;11.00;99.90
41694;DHT22;27377;50.666;9.150;2023-03-23T04:23:07;11.00;99.90
41694;DHT22;27377;50.666;9.150;2023-03-23T04:25:32;11.00;99.90
41694;DHT22;27377;50.666;9.150;2023-03-23T04:27:59;11.00;99.90
41694;DHT22;27377;50.666;9.150;2023-03-23T04:30:25;11.00;99.90
41694;DHT22;27377;50.666;9.150;2023-03-23T04:32:53;10.90;99.90
41694;DHT22;27377;50.666;9.150;2023-03-23T04:35:22;10.90;99.90
41694;DHT22;27377;50.666;9.150;2023-03-23T04:37:50;10.90;99.90
41694;DHT22;27377;50.666;9.150;2023-03-23T04:40:16;10.90;99.90
41694;DHT22;27377;50.666;9.150;2023-03-23T04:42:42;10.90;99.90
41694;DHT22;27377;50.666;9.150;2023-03-23T04:45:13;10.90;99.90
41694;DHT22;27377;50.666;9.150;2023-03-23T04:47:40;10.90;99.90
41694;DHT22;27377;50.666;9.150;2023-03-23T04:50:11;10.90;99.90
41694;DHT22;27377;50.666;9.150;2023-03-23T04:52:39;10.80;99.90
41694;DHT22;27377;50.666;9.150;2023-03-23T04:55:06;10.80;99.90
41694;DHT22;27377;50.666;9.150;2023-03-23T04:57:33;10.80;99.90
41694;DHT22;27377;50.666;9.150;2023-03-23T05:00:00;10.80;99.90
41694;DHT22;27377;50.666;9.150;2023-03-23T05:02:26;10.80;99.90
41694;DHT22;27377;50.666;9.150;2023-03-23T05:04:56;10.80;99.90
41694;DHT22;27377;50.666;9.150;2023-03-23T05:07:22;10.80;99.90
41694;DHT22;27377;50.666;9.150;2023-03-23T05:09:48;10.70;99.90
41694;DHT22;27377;50.666;9.150;2023-03-23T05:12:15;10.70;99.90
41694;DHT22;27377;50.666;9.150;2023-03-23T05:14:41;10.70;99.90
41694;DHT22;27377;50.666;9.150;2023-03-23T05:17:07;10.70;99.90
41694;DHT22;27377;50.666;9.150;2023-03-23T05:19:33;10.70;99.90
41694;DHT22;27377;50.666;9.150;2023-03-23T05:21:58;10.70;99.90
41694;DHT22;27377;50.666;9.150;2023-03-23T05:24:30;10.70;99.90
41694;DHT22;27377;50.666;9.150;2023-03-23T05:26:58;10.70;99.90
41694;DHT22;27377;50.666;9.150;2023-03-23T05:29:24;10.70;99.90
41694;DHT22;27377;50.666;9.150;2023-03-23T05:31:49;10.70;99.90
41694;DHT22;27377;50.666;9.150;2023-03-23T05:34:15;10.70;99.90
41694;DHT22;27377;50.666;9.150;2023-03-23T05:36:41;10.70;99.90
41694;DHT22;27377;50.666;9.150;2023-03-23T05:39:09;10.70;99.90
41694;DHT22;27377;50.666;9.150;2023-03-23T05:41:35;10.70;99.90
41694;DHT22;27377;50.666;9.150;2023-03-23T05:44:01;10.70;99.90
41694;DHT22;27377;50.666;9.150;2023-03-23T05:46:27;10.70;99.90
41694;DHT22;27377;50.666;9.150;2023-03-23T05:48:53;10.70;99.90
41694;DHT22;27377;50.666;9.150;2023-03-23T05:51:19;10.70;99.90
41694;DHT22;27377;50.666;9.150;2023-03-23T05:53:45;10.70;99.90
41694;DHT22;27377;50.666;9.150;2023-03-23T05:56:11;10.70;99.90
41694;DHT22;27377;50.666;9.150;2023-03-23T05:58:37;10.70;99.90
41694;DHT22;27377;50.666;9.150;2023-03-23T06:01:06;10.70;99.90
41694;DHT22;27377;50.666;9.150;2023-03-23T06:03:32;10.70;99.90
41694;DHT22;27377;50.666;9.150;2023-03-23T06:06:02;10.70;99.90
41694;DHT22;27377;50.666;9.150;2023-03-23T06:08:31;10.70;99.90
41694;DHT22;27377;50.666;9.150;2023-03-23T06:11:08;10.70;99.90
41694;DHT22;27377;50.666;9.150;2023-03-23T06:13:35;10.70;99.90
41694;DHT22;27377;50.666;9.150;2023-03-23T06:16:05;10.70;99.90
41694;DHT22;27377;50.666;9.150;2023-03-23T06:18:31;10.70;99.90
41694;DHT22;27377;50.666;9.150;2023-03-23T06:20:59;10.80;99.90
41694;DHT22;27377;50.666;9.150;2023-03-23T06:23:26;10.80;99.90
41694;DHT22;27377;50.666;9.150;2023-03-23T06:26:01;10.80;99.90
41694;DHT22;27377;50.666;9.150;2023-03-23T06:28:28;10.80;99.90
41694;DHT22;27377;50.666;9.150;2023-03-23T06:31:03;10.80;99.90
41694;DHT22;27377;50.666;9.150;2023-03-23T06:33:38;10.80;99.90
41694;DHT22;27377;50.666;9.150;2023-03-23T06:36:06;10.80;99.90
41694;DHT22;27377;50.666;9.150;2023-03-23T06:38:32;10.80;99.90
41694;DHT22;27377;50.666;9.150;2023-03-23T06:40:58;10.80;99.90
41694;DHT22;27377;50.666;9.150;2023-03-23T06:43:23;10.80;99.90
41694;DHT22;27377;50.666;9.150;2023-03-23T06:45:50;10.90;99.90
41694;DHT22;27377;50.666;9.150;2023-03-23T06:48:17;10.80;99.90
41694;DHT22;27377;50.666;9.150;2023-03-23T06:50:44;10.90;99.90
41694;DHT22;27377;50.666;9.150;2023-03-23T06:53:10;10.90;99.90
41694;DHT22;27377;50.666;9.150;2023-03-23T06:55:42;10.90;99.90
41694;DHT22;27377;50.666;9.150;2023-03-23T06:58:12;10.90;99.90
41694;DHT22;27377;50.666;9.150;2023-03-23T07:00:38;10.90;99.90
41694;DHT22;27377;50.666;9.150;2023-03-23T07:03:06;10.90;99.90
41694;DHT22;27377;50.666;9.150;2023-03-23T07:05:33;10.90;99.90
41694;DHT22;27377;50.666;9.150;2023-03-23T07:08:01;11.00;99.90
41694;DHT22;27377;50.666;9.150;2023-03-23T07:10:27;11.00;99.90
41694;DHT22;27377;50.666;9.150;2023-03-23T07:12:54;11.00;99.90
41694;DHT22;27377;50.666;9.150;2023-03-23T07:15:19;11.00;99.90
41694;DHT22;27377;50.666;9.150;2023-03-23T07:17:46;11.00;99.90
41694;DHT22;27377;50.666;9.150;2023-03-23T07:20:15;11.00;99.90
41694;DHT22;27377;50.666;9.150;2023-03-23T07:22:41;11.00;99.90
41694;DHT22;27377;50.666;9.150;2023-03-23T07:25:07;11.00;99.90
41694;DHT22;27377;50.666;9.150;2023-03-23T07:27:33;11.10;99.90
41694;DHT22;27377;50.666;9.150;2023-03-23T07:29:59;11.10;99.90
41694;DHT22;27377;50.666;9.150;2023-03-23T07:32:24;11.10;99.90
41694;DHT22;27377;50.666;9.150;2023-03-23T07:34:50;11.10;99.90
41694;DHT22;27377;50.666;9.150;2023-03-23T07:37:19;11.10;99.90
41694;DHT22;27377;50.666;9.150;2023-03-23T07:39:45;11.10;99.90
41694;DHT22;27377;50.666;9.150;2023-03-23T07:42:11;11.10;99.90
41694;DHT22;27377;50.666;9.150;2023-03-23T07:44:37;11.10;99.90
41694;DHT22;27377;50.666;9.150;2023-03-23T07:47:03;11.10;99.90
41694;DHT22;27377;50.666;9.150;2023-03-23T07:49:28;11.10;99.90
41694;DHT22;27377;50.666;9.150;2023-03-23T07:51:56;11.10;99.90
41694;DHT22;27377;50.666;9.150;2023-03-23T07:54:21;11.10;99.90
41694;DHT22;27377;50.666;9.150;2023-03-23T07:56:47;11.10;99.90
41694;DHT22;27377;50.666;9.150;2023-03-23T07:59:16;11.20;99.90
41694;DHT22;27377;50.666;9.150;2023-03-23T08:01:43;11.20;99.90
41694;DHT22;27377;50.666;9.150;2023-03-23T08:04:11;11.20;99.90
41694;DHT22;27377;50.666;9.150;2023-03-23T08:06:38;11.20;99.90
41694;DHT22;27377;50.666;9.150;2023-03-23T08:09:05;11.20;99.90
41694;DHT22;27377;50.666;9.150;2023-03-23T08:11:35;11.20;99.90
41694;DHT22;27377;50.666;9.150;2023-03-23T08:14:01;11.20;99.90
41694;DHT22;27377;50.666;9.150;2023-03-23T08:16:28;11.20;99.90
41694;DHT22;27377;50.666;9.150;2023-03-23T08:18:53;11.20;99.90
41694;DHT22;27377;50.666;9.150;2023-03-23T08:21:19;11.30;99.90
41694;DHT22;27377;50.666;9.150;2023-03-23T08:23:46;11.30;99.90
41694;DHT22;27377;50.666;9.150;2023-03-23T08:26:15;11.30;99.90
41694;DHT22;27377;50.666;9.150;2023-03-23T08:28:42;11.30;99.90
41694;DHT22;27377;50.666;9.150;2023-03-23T08:31:14;11.20;99.90
41694;DHT22;27377;50.666;9.150;2023-03-23T08:33:40;11.30;99.90
41694;DHT22;27377;50.666;9.150;2023-03-23T08:36:07;11.30;99.90
41694;DHT22;27377;50.666;9.150;2023-03-23T08:38:34;11.30;99.90
41694;DHT22;27377;50.666;9.150;2023-03-23T08:41:01;11.30;99.90
41694;DHT22;27377;50.666;9.150;2023-03-23T08:43:31;11.30;99.90
41694;DHT22;27377;50.666;9.150;2023-03-23T08:45:58;11.30;99.90
41694;DHT22;27377;50.666;9.150;2023-03-23T08:48:24;11.30;99.90
41694;DHT22;27377;50.666;9.150;2023-03-23T08:50:50;11.30;99.90
41694;DHT22;27377;50.666;9.150;2023-03-23T08:53:17;11.30;99.90
41694;DHT22;27377;50.666;9.150;2023-03-23T08:55:43;11.30;99.90
41694;DHT22;27377;50.666;9.150;2023-03-23T08:58:09;11.30;99.90
41694;DHT22;27377;50.666;9.150;2023-03-23T09:00:35;11.30;99.90
41694;DHT22;27377;50.666;9.150;2023-03-23T09:03:01;11.40;99.90
41694;DHT22;27377;50.666;9.150;2023-03-23T09:05:28;11.40;99.90
41694;DHT22;27377;50.666;9.150;2023-03-23T09:07:57;11.40;99.90
41694;DHT22;27377;50.666;9.150;2023-03-23T09:10:25;11.40;99.90
41694;DHT22;27377;50.666;9.150;2023-03-23T09:12:52;11.40;99.90
41694;DHT22;27377;50.666;9.150;2023-03-23T09:15:18;11.40;99.90
41694;DHT22;27377;50.666;9.150;2023-03-23T09:17:46;11.40;99.90
41694;DHT22;27377;50.666;9.150;2023-03-23T09:20:15;11.40;99.90
41694;DHT22;27377;50.666;9.150;2023-03-23T09:22:42;11.40;99.90
41694;DHT22;27377;50.666;9.150;2023-03-23T09:25:10;11.40;99.90
41694;DHT22;27377;50.666;9.150;2023-03-23T09:27:40;11.40;99.90
41694;DHT22;27377;50.666;9.150;2023-03-23T09:30:09;11.40;99.90
41694;DHT22;27377;50.666;9.150;2023-03-23T09:32:36;11.50;99.90
41694;DHT22;27377;50.666;9.150;2023-03-23T09:35:07;11.50;99.90
41694;DHT22;27377;50.666;9.150;2023-03-23T09:37:40;11.50;99.90
41694;DHT22;27377;50.666;9.150;2023-03-23T09:40:17;11.50;99.90
41694;DHT22;27377;50.666;9.150;2023-03-23T09:48:58;11.60;99.90
41694;DHT22;27377;50.666;9.150;2023-03-23T09:51:39;11.60;99.90
41694;DHT22;27377;50.666;9.150;2023-03-23T09:54:18;11.60;99.90
41694;DHT22;27377;50.666;9.150;2023-03-23T09:56:46;11.60;99.90
41694;DHT22;27377;50.666;9.150;2023-03-23T10:01:52;11.60;99.90
41694;DHT22;27377;50.666;9.150;2023-03-23T10:04:38;11.60;99.90
41694;DHT22;27377;50.666;9.150;2023-03-23T10:07:13;11.60;99.90
41694;DHT22;27377;50.666;9.150;2023-03-23T10:09:41;11.60;99.90
41694;DHT22;27377;50.666;9.150;2023-03-23T10:12:32;11.60;99.90
41694;DHT22;27377;50.666;9.150;2023-03-23T10:15:09;11.60;99.90
41694;DHT22;27377;50.666;9.150;2023-03-23T10:17:50;11.60;99.90
41694;DHT22;27377;50.666;9.150;2023-03-23T10:20:45;11.70;99.90
41694;DHT22;27377;50.666;9.150;2023-03-23T10:25:59;11.70;99.90
41694;DHT22;27377;50.666;9.150;2023-03-23T10:28:44;11.70;99.90
41694;DHT22;27377;50.666;9.150;2023-03-23T10:31:19;11.60;99.90
41694;DHT22;27377;50.666;9.150;2023-03-23T10:33:48;11.70;99.90
41694;DHT22;27377;50.666;9.150;2023-03-23T10:36:30;11.70;99.90
41694;DHT22;27377;50.666;9.150;2023-03-23T10:41:29;11.70;99.90
41694;DHT22;27377;50.666;9.150;2023-03-23T10:43:55;11.60;99.90
41694;DHT22;27377;50.666;9.150;2023-03-23T10:49:09;11.60;99.90
41694;DHT22;27377;50.666;9.150;2023-03-23T10:51:41;11.70;99.90
41694;DHT22;27377;50.666;9.150;2023-03-23T10:54:07;11.70;99.90
41694;DHT22;27377;50.666;9.150;2023-03-23T10:56:39;11.70;99.90
41694;DHT22;27377;50.666;9.150;2023-03-23T10:59:26;11.70;99.90
41694;DHT22;27377;50.666;9.150;2023-03-23T11:01:55;11.70;99.90
41694;DHT22;27377;50.666;9.150;2023-03-23T11:04:22;11.70;99.90
41694;DHT22;27377;50.666;9.150;2023-03-23T11:06:52;11.70;99.90
41694;DHT22;27377;50.666;9.150;2023-03-23T11:09:20;11.70;99.90
41694;DHT22;27377;50.666;9.150;2023-03-23T11:11:52;11.70;99.90
41694;DHT22;27377;50.666;9.150;2023-03-23T11:14:25;11.70;99.90
41694;DHT22;27377;50.666;9.150;2023-03-23T11:16:55;11.70;99.90
41694;DHT22;27377;50.666;9.150;2023-03-23T11:21:54;11.70;99.90
41694;DHT22;27377;50.666;9.150;2023-03-23T11:24:26;11.80;99.90
41694;DHT22;27377;50.666;9.150;2023-03-23T11:26:53;11.80;99.90
41694;DHT22;27377;50.666;9.150;2023-03-23T11:29:24;11.80;99.90
41694;DHT22;27377;50.666;9.150;2023-03-23T11:32:04;11.90;99.90
41694;DHT22;27377;50.666;9.150;2023-03-23T11:34:58;11.90;99.90
41694;DHT22;27377;50.666;9.150;2023-03-23T11:37:46;11.90;99.90
41694;DHT22;27377;50.666;9.150;2023-03-23T11:40:21;11.90;99.90
41694;DHT22;27377;50.666;9.150;2023-03-23T11:42:50;11.90;99.90
41694;DHT22;27377;50.666;9.150;2023-03-23T11:45:39;11.90;99.90
41694;DHT22;27377;50.666;9.150;2023-03-23T11:48:36;11.90;99.90
41694;DHT22;27377;50.666;9.150;2023-03-23T11:51:14;11.90;99.90
41694;DHT22;27377;50.666;9.150;2023-03-23T11:53:55;11.90;99.90
41694;DHT22;27377;50.666;9.150;2023-03-23T11:58:57;11.90;99.90
41694;DHT22;27377;50.666;9.150;2023-03-23T12:10:05;11.90;99.90
41694;DHT22;27377;50.666;9.150;2023-03-23T12:20:58;11.90;99.90
41694;DHT22;27377;50.666;9.150;2023-03-23T12:23:36;11.90;99.90
41694;DHT22;27377;50.666;9.150;2023-03-23T12:26:25;11.90;99.90
41694;DHT22;27377;50.666;9.150;2023-03-23T12:29:45;11.80;99.90
41694;DHT22;27377;50.666;9.150;2023-03-23T12:32:19;11.80;99.90
41694;DHT22;27377;50.666;9.150;2023-03-23T12:38:00;11.80;99.90
41694;DHT22;27377;50.666;9.150;2023-03-23T12:43:08;11.80;99.90
41694;DHT22;27377;50.666;9.150;2023-03-23T12:45:55;11.80;99.90
41694;DHT22;27377;50.666;9.150;2023-03-23T12:48:28;11.90;99.90
41694;DHT22;27377;50.666;9.150;2023-03-23T12:53:30;11.90;99.90
41694;DHT22;27377;50.666;9.150;2023-03-23T12:56:06;12.00;99.90
41694;DHT22;27377;50.666;9.150;2023-03-23T12:58:38;12.00;99.90
41694;DHT22;27377;50.666;9.150;2023-03-23T13:03:59;12.00;99.90
41694;DHT22;27377;50.666;9.150;2023-03-23T13:11:40;12.00;99.90
41694;DHT22;27377;50.666;9.150;2023-03-23T13:22:48;12.10;99.90
41694;DHT22;27377;50.666;9.150;2023-03-23T13:28:14;12.20;99.90
41694;DHT22;27377;50.666;9.150;2023-03-23T13:30:40;12.20;99.90
41694;DHT22;27377;50.666;9.150;2023-03-23T13:33:11;12.20;99.90
41694;DHT22;27377;50.666;9.150;2023-03-23T13:35:40;12.30;99.90
41694;DHT22;27377;50.666;9.150;2023-03-23T13:38:24;12.30;99.90
41694;DHT22;27377;50.666;9.150;2023-03-23T13:40:51;12.30;99.90
41694;DHT22;27377;50.666;9.150;2023-03-23T13:43:35;12.30;99.90
41694;DHT22;27377;50.666;9.150;2023-03-23T13:54:40;12.40;99.90
41694;DHT22;27377;50.666;9.150;2023-03-23T13:57:23;12.50;99.90
41694;DHT22;27377;50.666;9.150;2023-03-23T13:59:56;12.50;99.90
41694;DHT22;27377;50.666;9.150;2023-03-23T14:02:35;12.50;99.90
41694;DHT22;27377;50.666;9.150;2023-03-23T14:08:14;12.60;99.90
41694;DHT22;27377;50.666;9.150;2023-03-23T14:10:50;12.70;99.90
41694;DHT22;27377;50.666;9.150;2023-03-23T14:13:20;12.70;99.90
41694;DHT22;27377;50.666;9.150;2023-03-23T14:15:59;12.70;99.90
41694;DHT22;27377;50.666;9.150;2023-03-23T14:18:32;12.70;99.90
41694;DHT22;27377;50.666;9.150;2023-03-23T14:21:00;12.70;99.90
41694;DHT22;27377;50.666;9.150;2023-03-23T14:23:26;12.70;99.90
41694;DHT22;27377;50.666;9.150;2023-03-23T14:26:00;12.70;99.90
41694;DHT22;27377;50.666;9.150;2023-03-23T14:28:39;12.70;99.90
41694;DHT22;27377;50.666;9.150;2023-03-23T14:31:17;12.70;99.90
41694;DHT22;27377;50.666;9.150;2023-03-23T14:33:43;12.70;99.90
41694;DHT22;27377;50.666;9.150;2023-03-23T14:36:09;12.70;99.90
41694;DHT22;27377;50.666;9.150;2023-03-23T14:38:35;12.70;99.90
41694;DHT22;27377;50.666;9.150;2023-03-23T14:41:05;12.80;99.90
41694;DHT22;27377;50.666;9.150;2023-03-23T14:43:34;12.80;99.90
41694;DHT22;27377;50.666;9.150;2023-03-23T14:46:04;12.80;99.90
41694;DHT22;27377;50.666;9.150;2023-03-23T14:48:34;12.80;99.90
41694;DHT22;27377;50.666;9.150;2023-03-23T14:51:04;12.80;99.90
41694;DHT22;27377;50.666;9.150;2023-03-23T14:53:37;12.80;99.90
41694;DHT22;27377;50.666;9.150;2023-03-23T14:56:14;12.80;99.90
41694;DHT22;27377;50.666;9.150;2023-03-23T14:58:51;12.70;99.90
41694;DHT22;27377;50.666;9.150;2023-03-23T15:01:28;12.70;99.90
41694;DHT22;27377;50.666;9.150;2023-03-23T15:04:03;12.70;99.90
41694;DHT22;27377;50.666;9.150;2023-03-23T15:06:34;12.70;99.90
41694;DHT22;27377;50.666;9.150;2023-03-23T15:09:04;12.70;99.90
41694;DHT22;27377;50.666;9.150;2023-03-23T15:11:37;12.70;99.90
41694;DHT22;27377;50.666;9.150;2023-03-23T15:14:29;12.70;99.90
41694;DHT22;27377;50.666;9.150;2023-03-23T15:16:58;12.70;99.90
41694;DHT22;27377;50.666;9.150;2023-03-23T15:19:35;12.70;99.90
41694;DHT22;27377;50.666;9.150;2023-03-23T15:24:41;12.70;99.90
41694;DHT22;27377;50.666;9.150;2023-03-23T15:27:24;12.70;99.90
41694;DHT22;27377;50.666;9.150;2023-03-23T15:29:54;12.70;99.90
41694;DHT22;27377;50.666;9.150;2023-03-23T15:32:31;12.70;99.90
41694;DHT22;27377;50.666;9.150;2023-03-23T15:35:09;12.70;99.90
41694;DHT22;27377;50.666;9.150;2023-03-23T15:37:49;12.70;99.90
41694;DHT22;27377;50.666;9.150;2023-03-23T15:40:22;12.70;99.90
41694;DHT22;27377;50.666;9.150;2023-03-23T15:42:49;12.80;99.90
41694;DHT22;27377;50.666;9.150;2023-03-23T15:45:27;12.90;99.90
41694;DHT22;27377;50.666;9.150;2023-03-23T15:47:53;12.90;99.90
41694;DHT22;27377;50.666;9.150;2023-03-23T15:50:32;12.90;99.90
41694;DHT22;27377;50.666;9.150;2023-03-23T15:52:58;12.90;99.90
41694;DHT22;27377;50.666;9.150;2023-03-23T15:55:29;12.90;99.90
41694;DHT22;27377;50.666;9.150;2023-03-23T15:58:00;12.90;99.90
41694;DHT22;27377;50.666;9.150;2023-03-23T16:00:27;12.80;99.90
41694;DHT22;27377;50.666;9.150;2023-03-23T16:02:57;12.90;99.90
41694;DHT22;27377;50.666;9.150;2023-03-23T16:05:23;12.80;99.90
41694;DHT22;27377;50.666;9.150;2023-03-23T16:07:49;12.80;99.90
41694;DHT22;27377;50.666;9.150;2023-03-23T16:10:17;12.80;99.90
41694;DHT22;27377;50.666;9.150;2023-03-23T16:12:44;12.80;99.90
41694;DHT22;27377;50.666;9.150;2023-03-23T16:15:11;12.80;99.90
41694;DHT22;27377;50.666;9.150;2023-03-23T16:17:36;12.80;99.90
41694;DHT22;27377;50.666;9.150;2023-03-23T16:20:13;12.80;99.90
41694;DHT22;27377;50.666;9.150;2023-03-23T16:22:38;12.80;99.90
41694;DHT22;27377;50.666;9.150;2023-03-23T16:25:05;12.80;99.90
41694;DHT22;27377;50.666;9.150;2023-03-23T16:27:31;12.70;99.90
41694;DHT22;27377;50.666;9.150;2023-03-23T16:29:57;12.70;99.90
41694;DHT22;27377;50.666;9.150;2023-03-23T16:32:25;12.70;99.90
41694;DHT22;27377;50.666;9.150;2023-03-23T16:34:50;12.70;99.90
41694;DHT22;27377;50.666;9.150;2023-03-23T16:37:16;12.70;99.90
41694;DHT22;27377;50.666;9.150;2023-03-23T16:39:42;12.70;99.90
41694;DHT22;27377;50.666;9.150;2023-03-23T16:42:07;12.70;99.90
41694;DHT22;27377;50.666;9.150;2023-03-23T16:44:33;12.70;99.90
41694;DHT22;27377;50.666;9.150;2023-03-23T16:46:58;12.70;99.90
41694;DHT22;27377;50.666;9.150;2023-03-23T16:49:24;12.70;99.90
41694;DHT22;27377;50.666;9.150;2023-03-23T16:51:50;12.70;99.90
41694;DHT22;27377;50.666;9.150;2023-03-23T16:54:15;12.70;99.90
41694;DHT22;27377;50.666;9.150;2023-03-23T16:56:41;12.60;99.90
41694;DHT22;27377;50.666;9.150;2023-03-23T16:59:11;12.60;99.90
41694;DHT22;27377;50.666;9.150;2023-03-23T17:01:37;12.60;99.90
41694;DHT22;27377;50.666;9.150;2023-03-23T17:04:03;12.60;99.90
41694;DHT22;27377;50.666;9.150;2023-03-23T17:06:29;12.60;99.90
41694;DHT22;27377;50.666;9.150;2023-03-23T17:08:54;12.60;99.90
41694;DHT22;27377;50.666;9.150;2023-03-23T17:11:20;12.60;99.90
41694;DHT22;27377;50.666;9.150;2023-03-23T17:13:45;12.60;99.90
41694;DHT22;27377;50.666;9.150;2023-03-23T17:16:11;12.50;99.90
41694;DHT22;27377;50.666;9.150;2023-03-23T17:18:36;12.50;99.90
41694;DHT22;27377;50.666;9.150;2023-03-23T17:21:02;12.50;99.90